Time;durP1;ratioP1;P1;durP2;ratioP2;P2;SDS_P1;SDS_P2;PMS_P1;PMS_P2;Temp;Humidity;BMP_temperature;BMP_pressure;BME280_temperature;BME280_humidity;BME280_pressure;Samples;Min_cycle;Max_cycle;Signal;HPM_P1;HPM_P2
2023/01/27 00:01:08;;;;;;;10.75;2.15;;;;;;;8.54;57.31;102389.25;4958911;28;123742;-71
2023/01/27 00:03:36;;;;;;;8.85;2.03;;;;;;;8.51;57.34;102378.72;4939316;28;123839;-71
2023/01/27 00:06:05;;;;;;;9.45;2.00;;;;;;;8.48;57.43;102378.75;4940533;28;119525;-71
2023/01/27 00:08:32;;;;;;;12.02;2.22;;;;;;;8.44;57.40;102379.66;4945699;28;119019;-71
2023/01/27 00:13:45;;;;;;;8.27;1.73;;;;;;;8.41;57.53;102382.31;4934379;28;123867;-71
2023/01/27 00:16:12;;;;;;;11.80;2.40;;;;;;;8.39;57.73;102375.28;4928418;28;120093;-71
2023/01/27 00:18:39;;;;;;;7.57;1.77;;;;;;;8.39;57.59;102375.28;4929371;28;119287;-71
2023/01/27 00:26:38;;;;;;;10.27;2.70;;;;;;;8.32;57.73;102384.16;4928954;28;119628;-71
2023/01/27 00:29:06;;;;;;;10.18;2.20;;;;;;;8.31;57.91;102382.44;4940000;28;118853;-71
2023/01/27 00:34:18;;;;;;;;;;;;;;;8.27;57.61;102383.34;4939036;28;124053;-71
2023/01/27 00:36:45;;;;;;;10.13;2.40;;;;;;;8.25;57.63;102382.50;4939021;28;118415;-71
2023/01/27 00:39:12;;;;;;;11.07;2.78;;;;;;;8.24;57.92;102379.88;4938624;28;118542;-71
2023/01/27 00:41:42;;;;;;;8.98;2.65;;;;;;;8.22;57.91;102381.66;4940632;28;123378;-71
2023/01/27 00:44:11;;;;;;;14.80;3.10;;;;;;;8.21;57.88;102388.69;4943937;28;123749;-71
2023/01/27 00:46:40;;;;;;;15.43;3.13;;;;;;;8.20;57.89;102381.66;4955435;28;118864;-71
2023/01/27 00:49:09;;;;;;;11.15;2.67;;;;;;;8.20;57.99;102384.31;4942565;28;118441;-71
2023/01/27 00:51:36;;;;;;;8.65;2.28;;;;;;;8.20;57.87;102384.31;4962817;28;122370;-71
2023/01/27 00:54:04;;;;;;;12.82;3.38;;;;;;;8.20;58.35;102389.59;4941437;28;122201;-71
2023/01/27 00:56:32;;;;;;;11.20;2.83;;;;;;;8.20;57.87;102384.31;4948942;28;119831;-70
2023/01/27 00:59:00;;;;;;;14.60;3.10;;;;;;;8.17;57.87;102385.22;4946406;28;118225;-71
2023/01/27 01:01:27;;;;;;;12.23;3.20;;;;;;;8.16;58.18;102393.16;4937359;28;123778;-71
2023/01/27 01:03:57;;;;;;;10.02;2.78;;;;;;;8.15;57.90;102394.03;4943725;28;123596;-71
2023/01/27 01:06:25;;;;;;;12.10;2.90;;;;;;;8.15;57.80;102391.38;4947197;28;120334;-71
2023/01/27 01:08:55;;;;;;;10.95;2.92;;;;;;;8.13;57.76;102395.81;4937448;28;119113;-71
2023/01/27 01:11:23;;;;;;;10.23;3.00;;;;;;;8.12;58.06;102392.31;4944441;28;123477;-71
2023/01/27 01:13:50;;;;;;;10.27;3.03;;;;;;;8.12;57.88;102392.31;4944909;28;122381;-71
2023/01/27 01:16:22;;;;;;;13.30;3.50;;;;;;;8.10;57.79;102395.81;4940601;28;119527;-71
2023/01/27 01:18:49;;;;;;;10.00;3.00;;;;;;;8.09;57.99;102402.00;4947539;28;119639;-71
2023/01/27 01:21:16;;;;;;;13.40;3.30;;;;;;;8.06;57.82;102404.66;4942703;28;123008;-71
2023/01/27 01:23:44;;;;;;;14.70;3.25;;;;;;;8.05;57.73;102406.44;4943120;28;122938;-71
2023/01/27 01:26:14;;;;;;;9.38;3.00;;;;;;;8.05;58.04;102408.22;4938515;28;119422;-71
2023/01/27 01:28:43;;;;;;;10.30;3.13;;;;;;;8.05;58.17;102405.56;4939153;28;118296;-71
2023/01/27 01:31:16;;;;;;;11.27;3.00;;;;;;;8.05;58.20;102405.56;4943062;28;124247;-70
2023/01/27 01:33:43;;;;;;;11.50;2.83;;;;;;;8.06;58.01;102407.31;4947782;28;123993;-71
2023/01/27 01:36:14;;;;;;;10.60;3.60;;;;;;;8.06;58.06;102408.19;4955004;28;118943;-71
2023/01/27 01:38:41;;;;;;;10.48;3.40;;;;;;;8.06;57.90;102412.56;4951728;28;118769;-71
2023/01/27 01:41:12;;;;;;;11.25;3.13;;;;;;;8.06;58.11;102409.94;4938604;28;124914;-70
2023/01/27 01:43:39;;;;;;;12.20;3.10;;;;;;;8.06;57.93;102417.84;4941043;28;124389;-71
2023/01/27 01:46:09;;;;;;;9.65;3.20;;;;;;;8.04;57.81;102414.34;4958095;28;118455;-71
2023/01/27 01:48:46;;;;;;;10.10;3.42;;;;;;;8.05;57.74;102416.13;4931246;28;118028;-71
2023/01/27 01:51:21;;;;;;;11.50;3.47;;;;;;;8.03;57.77;102420.53;4938972;28;123373;-71
2023/01/27 01:54:03;;;;;;;13.90;3.17;;;;;;;8.01;57.59;102417.06;4942694;28;124062;-70
2023/01/27 01:56:52;;;;;;;9.13;3.47;;;;;;;8.01;57.53;102424.97;4941548;28;120499;-71
2023/01/27 01:59:25;;;;;;;11.65;3.13;;;;;;;8.01;57.74;102424.97;4957009;28;119088;-71
2023/01/27 02:01:56;;;;;;;9.73;2.95;;;;;;;7.99;57.93;102422.34;4943148;28;124096;-71
2023/01/27 02:04:30;;;;;;;9.73;3.15;;;;;;;8.01;57.98;102424.97;4950023;28;123319;-71
2023/01/27 02:07:07;;;;;;;8.90;3.17;;;;;;;7.98;57.81;102426.72;4940016;28;120163;-71
2023/01/27 02:09:37;;;;;;;9.25;3.70;;;;;;;7.98;57.57;102421.44;4939131;28;119706;-71
2023/01/27 02:12:05;;;;;;;8.73;3.20;;;;;;;7.98;57.70;102426.72;4941518;28;123183;-71
2023/01/27 02:14:32;;;;;;;10.93;3.78;;;;;;;7.97;57.49;102429.38;4943733;28;124179;-71
2023/01/27 02:17:01;;;;;;;10.93;3.72;;;;;;;7.96;57.51;102433.75;4946350;28;119580;-71
2023/01/27 02:19:46;;;;;;;9.13;3.33;;;;;;;7.94;57.54;102430.28;4942479;28;118986;-71
2023/01/27 02:22:23;;;;;;;9.10;3.65;;;;;;;7.92;57.75;102432.03;4938858;28;123917;-71
2023/01/27 02:24:57;;;;;;;7.75;3.38;;;;;;;7.92;57.84;102437.31;4953587;28;123833;-71
2023/01/27 02:27:24;;;;;;;9.88;3.80;;;;;;;7.91;57.98;102432.94;4939772;28;120019;-71
2023/01/27 02:29:52;;;;;;;10.52;3.45;;;;;;;7.93;57.93;102438.19;4938237;28;118458;-71
2023/01/27 02:32:26;;;;;;;10.15;3.83;;;;;;;7.92;57.82;102442.59;4933201;28;123160;-71
2023/01/27 02:34:55;;;;;;;11.77;4.30;;;;;;;7.91;57.75;102440.88;4955923;28;121623;-71
2023/01/27 02:37:23;;;;;;;7.90;3.42;;;;;;;7.90;57.44;102449.66;4939534;28;118708;-71
2023/01/27 02:39:54;;;;;;;9.38;3.60;;;;;;;7.91;57.77;102439.97;4941961;28;118572;-71
2023/01/27 02:42:22;;;;;;;10.95;4.15;;;;;;;7.92;57.61;102441.72;4953808;28;123261;-71
2023/01/27 02:44:49;;;;;;;15.10;4.40;;;;;;;7.92;57.79;102437.31;4955178;28;122786;-71
2023/01/27 02:47:17;;;;;;;13.35;4.55;;;;;;;7.93;58.04;102439.09;4954984;28;120805;-71
2023/01/27 02:49:44;;;;;;;13.77;4.72;;;;;;;7.93;57.70;102438.19;4939372;28;120120;-71
2023/01/27 02:52:11;;;;;;;14.93;5.15;;;;;;;7.91;58.00;102438.22;4953474;28;124044;-71
2023/01/27 02:54:39;;;;;;;10.07;4.55;;;;;;;7.91;57.96;102434.69;4956080;28;123086;-71
2023/01/27 02:57:06;;;;;;;12.00;5.55;;;;;;;7.92;57.96;102436.47;4936870;28;119571;-71
2023/01/27 02:59:43;;;;;;;12.45;5.13;;;;;;;7.92;58.07;102436.47;4957929;28;120133;-71
2023/01/27 03:02:21;;;;;;;12.45;5.55;;;;;;;7.92;57.98;102437.31;4944165;28;124140;-71
2023/01/27 03:04:49;;;;;;;10.90;5.22;;;;;;;7.92;57.90;102442.59;4955965;28;123256;-71
2023/01/27 03:07:16;;;;;;;8.57;4.85;;;;;;;7.92;57.91;102439.97;4955314;28;118808;-71
2023/01/27 03:09:43;;;;;;;13.90;5.68;;;;;;;7.92;58.08;102437.31;4955196;28;118604;-71
2023/01/27 03:12:19;;;;;;;13.95;5.70;;;;;;;7.92;58.03;102439.97;4939185;28;123051;-71
2023/01/27 03:20:22;;;;;;;17.10;6.57;;;;;;;7.89;58.09;102457.56;4957497;28;118215;-71
2023/01/27 03:22:49;;;;;;;13.88;6.20;;;;;;;7.88;58.32;102456.72;4938868;28;124225;-71
2023/01/27 03:25:19;;;;;;;18.02;7.25;;;;;;;7.87;58.48;102460.22;4954583;28;122932;-71
2023/01/27 03:27:46;;;;;;;13.07;6.65;;;;;;;7.85;58.13;102456.72;4953529;28;118698;-71
2023/01/27 03:30:21;;;;;;;15.73;6.13;;;;;;;7.82;58.01;102456.75;4956883;28;119057;-71
2023/01/27 03:33:02;;;;;;;16.00;7.28;;;;;;;7.82;58.27;102456.75;4955498;28;125048;-71
2023/01/27 03:47:07;;;;;;;;;;;;;;;7.75;58.53;102473.50;4943243;28;123931;-71
2023/01/27 03:49:34;;;;;;;13.57;7.47;;;;;;;7.75;58.31;102481.44;4940697;28;119406;-71
2023/01/27 03:52:01;;;;;;;19.25;8.85;;;;;;;7.74;58.65;102495.47;4939535;28;119001;-71
2023/01/27 03:54:28;;;;;;;18.50;7.65;;;;;;;7.73;58.48;102488.47;4943959;28;125056;-71
2023/01/27 03:56:55;;;;;;;19.33;8.63;;;;;;;7.73;58.39;102489.34;4954547;28;123528;-71
2023/01/27 03:59:22;;;;;;;17.85;8.07;;;;;;;7.72;58.33;102492.88;4940473;28;120013;-71
2023/01/27 04:01:49;;;;;;;15.77;8.35;;;;;;;7.72;58.61;102486.72;4944612;28;119757;-71
2023/01/27 04:07:02;;;;;;;;;;;;;;;7.70;58.24;102496.41;4936339;28;124410;-71
2023/01/27 04:09:32;;;;;;;15.57;7.38;;;;;;;7.70;58.31;102491.13;4959125;28;119706;-71
2023/01/27 04:12:03;;;;;;;15.85;7.70;;;;;;;7.67;58.47;102488.53;4938899;28;118765;-71
2023/01/27 04:14:38;;;;;;;14.77;7.50;;;;;;;7.65;58.48;102495.53;4946088;28;123653;-71
2023/01/27 04:17:12;;;;;;;15.27;7.83;;;;;;;7.64;58.42;102493.81;4961069;28;124332;-71
2023/01/27 04:19:40;;;;;;;15.07;7.68;;;;;;;7.65;58.41;102490.25;4941855;28;119810;-71
2023/01/27 04:22:10;;;;;;;13.70;7.63;;;;;;;7.64;58.71;102488.53;4937054;28;118280;-71
2023/01/27 04:24:37;;;;;;;17.42;7.85;;;;;;;7.64;58.95;102488.53;4943189;28;124482;-71
2023/01/27 04:27:07;;;;;;;16.23;8.20;;;;;;;7.62;58.84;102500.84;4943525;28;122672;-71
2023/01/27 04:29:39;;;;;;;19.55;7.65;;;;;;;7.59;58.97;102492.06;4942957;28;120050;-71
2023/01/27 04:32:09;;;;;;;13.20;6.90;;;;;;;7.60;58.87;102499.09;4940752;28;120149;-71
2023/01/27 04:34:36;;;;;;;12.93;7.45;;;;;;;7.60;58.86;102493.81;4934675;28;125457;-71
2023/01/27 04:37:05;;;;;;;13.93;7.93;;;;;;;7.60;58.77;102492.94;4958183;28;123737;-71
2023/01/27 04:39:33;;;;;;;15.98;7.82;;;;;;;7.60;58.91;102491.19;4943159;28;119561;-71
2023/01/27 04:42:00;;;;;;;18.02;8.55;;;;;;;7.59;58.87;102497.34;4936439;28;118595;-71
2023/01/27 04:44:29;;;;;;;12.95;7.38;;;;;;;7.57;58.75;102491.22;4937537;28;122847;-71
2023/01/27 04:46:56;;;;;;;17.33;8.30;;;;;;;7.58;58.73;102495.59;4938361;28;123821;-71
2023/01/27 04:49:25;;;;;;;18.63;8.77;;;;;;;7.58;59.06;102498.22;4941965;28;118820;-70
2023/01/27 04:51:53;;;;;;;14.73;8.20;;;;;;;7.57;58.94;102499.13;4937702;28;118870;-71
2023/01/27 04:54:20;;;;;;;14.85;7.85;;;;;;;7.58;59.10;102503.50;4944099;28;123506;-71
2023/01/27 04:56:56;;;;;;;13.48;7.70;;;;;;;7.57;59.24;102504.41;4945806;28;123764;-71
2023/01/27 04:59:24;;;;;;;16.42;8.18;;;;;;;7.57;59.01;102504.41;4957396;28;119881;-71
2023/01/27 05:01:51;;;;;;;14.93;7.85;;;;;;;7.56;58.94;102507.91;4926501;28;118397;-71
2023/01/27 05:04:19;;;;;;;14.65;7.60;;;;;;;7.55;59.36;102514.09;4940840;28;123863;-71
2023/01/27 05:06:46;;;;;;;16.83;7.88;;;;;;;7.56;59.14;102517.59;4958021;28;122070;-71
2023/01/27 05:09:13;;;;;;;13.02;7.90;;;;;;;7.55;58.98;102522.00;4943739;28;120090;-71
2023/01/27 05:11:40;;;;;;;14.02;7.72;;;;;;;7.54;59.23;102514.94;4937376;28;118988;-71
2023/01/27 05:14:07;;;;;;;14.55;7.47;;;;;;;7.53;59.49;102523.72;4939200;28;124029;-71
2023/01/27 05:16:34;;;;;;;15.30;7.97;;;;;;;7.54;59.20;102522.84;4934929;28;124398;-71
2023/01/27 05:19:01;;;;;;;16.05;8.32;;;;;;;7.54;59.20;102520.22;4938793;28;120953;-71
2023/01/27 05:21:29;;;;;;;16.13;7.85;;;;;;;7.55;59.31;102516.72;4943805;28;120816;-71
2023/01/27 05:23:56;;;;;;;14.43;8.05;;;;;;;7.55;59.16;102510.53;4945209;28;124109;-72
2023/01/27 05:26:26;;;;;;;18.55;9.85;;;;;;;7.54;59.41;102514.94;4941165;28;123953;-71
2023/01/27 05:28:56;;;;;;;15.75;8.20;;;;;;;7.53;59.27;102518.47;4943389;28;119506;-71
2023/01/27 05:31:26;;;;;;;14.60;8.10;;;;;;;7.52;59.47;102519.34;4944368;28;120596;-71
2023/01/27 05:33:55;;;;;;;14.43;8.02;;;;;;;7.52;59.17;102516.72;4944443;28;124230;-71
2023/01/27 05:36:23;;;;;;;14.23;7.88;;;;;;;7.53;59.46;102518.47;4945705;28;124170;-70
2023/01/27 05:38:52;;;;;;;15.20;8.18;;;;;;;7.55;59.54;102515.81;4947801;28;119420;-71
2023/01/27 05:41:20;;;;;;;15.18;8.40;;;;;;;7.56;59.06;102518.44;4942878;28;119291;-71
2023/01/27 05:43:51;;;;;;;14.73;8.15;;;;;;;7.57;59.19;102520.22;4955951;28;125256;-72
2023/01/27 05:46:22;;;;;;;16.05;8.52;;;;;;;7.58;59.50;102521.94;4941440;28;123691;-71
2023/01/27 05:48:51;;;;;;;13.98;7.93;;;;;;;7.60;59.14;102530.72;4960288;28;119113;-71
2023/01/27 05:51:21;;;;;;;13.50;8.20;;;;;;;7.60;59.14;102525.47;4942434;28;119341;-71
2023/01/27 05:53:48;;;;;;;14.27;7.88;;;;;;;7.63;59.06;102528.97;4944262;28;123856;-71
2023/01/27 05:56:17;;;;;;;13.48;8.35;;;;;;;7.66;59.34;102523.69;4947367;28;124500;-71
2023/01/27 05:58:45;;;;;;;12.98;7.40;;;;;;;7.67;59.25;102530.72;4943577;28;118356;-71
2023/01/27 06:01:18;;;;;;;14.80;8.40;;;;;;;7.67;59.12;102525.44;4942458;28;119206;-71
2023/01/27 06:03:46;;;;;;;14.23;8.68;;;;;;;7.67;59.10;102528.94;4942799;28;125321;-71
2023/01/27 06:06:17;;;;;;;15.70;8.63;;;;;;;7.66;59.04;102529.81;4943782;28;124568;-71
2023/01/27 06:08:44;;;;;;;16.55;8.50;;;;;;;7.66;59.23;102534.22;4937351;28;120208;-71
2023/01/27 06:11:12;;;;;;;14.55;8.27;;;;;;;7.66;59.34;102528.94;4941554;28;119804;-71
2023/01/27 06:13:39;;;;;;;15.48;8.00;;;;;;;7.69;59.45;102539.50;4942282;28;123997;-71
2023/01/27 06:16:12;;;;;;;13.80;8.10;;;;;;;7.68;58.95;102543.00;4957868;28;124017;-71
2023/01/27 06:18:39;;;;;;;12.93;7.85;;;;;;;7.68;59.17;102533.31;4940263;28;119220;-71
2023/01/27 06:21:09;;;;;;;16.23;8.35;;;;;;;7.70;59.03;102541.22;4945421;28;119667;-71
2023/01/27 06:23:37;;;;;;;14.45;8.38;;;;;;;7.70;59.18;102541.22;4948635;28;124241;-71
2023/01/27 06:26:13;;;;;;;14.48;8.35;;;;;;;7.70;59.45;102541.22;4937917;28;124224;-71
2023/01/27 06:28:40;;;;;;;13.75;7.88;;;;;;;7.71;59.16;102543.00;4941622;28;119712;-71
2023/01/27 06:31:10;;;;;;;13.00;7.53;;;;;;;7.71;58.98;102537.72;4940551;28;119019;-71
2023/01/27 06:33:38;;;;;;;15.10;7.78;;;;;;;7.71;58.85;102545.63;4939195;28;124952;-71
2023/01/27 06:36:08;;;;;;;13.88;8.18;;;;;;;7.70;59.18;102546.50;4937388;28;125279;-71
2023/01/27 06:38:36;;;;;;;14.38;7.75;;;;;;;7.70;59.00;102551.78;4945299;28;119626;-71
2023/01/27 06:41:04;;;;;;;11.70;7.38;;;;;;;7.70;59.23;102557.06;4945435;28;119762;-71
2023/01/27 06:43:31;;;;;;;12.63;7.53;;;;;;;7.69;59.29;102556.19;4936748;28;123908;-71
2023/01/27 06:45:58;;;;;;;11.48;6.90;;;;;;;7.70;58.95;102557.91;4945308;28;125974;-71
2023/01/27 06:48:26;;;;;;;11.48;6.53;;;;;;;7.72;58.98;102555.28;4940282;28;119927;-71
2023/01/27 06:50:55;;;;;;;12.18;7.32;;;;;;;7.72;59.17;102560.56;4939546;28;119192;-72
2023/01/27 06:53:22;;;;;;;12.65;7.03;;;;;;;7.75;59.11;102565.81;4934337;28;124804;-71
2023/01/27 06:55:58;;;;;;;9.23;6.13;;;;;;;7.77;59.15;102569.31;4947087;28;124073;-71
2023/01/27 06:58:25;;;;;;;9.15;5.72;;;;;;;7.77;58.85;102564.06;4953661;28;119336;-71
2023/01/27 07:00:54;;;;;;;9.82;5.20;;;;;;;7.76;58.73;102557.00;4944565;28;119509;-71
2023/01/27 07:03:21;;;;;;;8.18;4.57;;;;;;;7.77;58.93;102564.06;4940658;28;123115;-71
2023/01/27 07:05:49;;;;;;;7.50;4.25;;;;;;;7.77;58.91;102556.13;4941741;28;124332;-71
2023/01/27 07:08:16;;;;;;;8.30;4.30;;;;;;;7.79;58.89;102572.81;4943102;28;119970;-71
2023/01/27 07:10:43;;;;;;;8.65;4.25;;;;;;;7.79;58.73;102572.81;4942908;28;119754;-71
2023/01/27 07:13:12;;;;;;;6.38;3.90;;;;;;;7.80;58.90;102569.31;4937714;28;123811;-71
2023/01/27 07:15:39;;;;;;;7.97;4.22;;;;;;;7.82;58.82;102578.09;4936075;28;124135;-71
2023/01/27 07:18:08;;;;;;;6.55;4.13;;;;;;;7.83;58.63;102571.91;4943009;28;119267;-70
2023/01/27 07:20:35;;;;;;;7.03;3.70;;;;;;;7.85;58.89;102575.41;4935568;28;119810;-71
2023/01/27 07:23:04;;;;;;;6.90;3.78;;;;;;;7.86;58.70;102577.19;4951353;28;123887;-71
2023/01/27 07:25:33;;;;;;;6.07;3.40;;;;;;;7.85;58.57;102580.69;4935895;28;123931;-71
2023/01/27 07:28:02;;;;;;;5.72;2.95;;;;;;;7.87;58.56;102580.69;4934232;28;119587;-71
2023/01/27 07:30:29;;;;;;;5.57;3.33;;;;;;;7.87;58.68;102592.13;4934857;28;119428;-71
2023/01/27 07:33:10;;;;;;;5.75;3.63;;;;;;;7.87;58.53;102589.47;4934919;28;124877;-71
2023/01/27 07:35:38;;;;;;;6.50;3.40;;;;;;;7.89;58.29;102590.38;4938822;28;124458;-71
2023/01/27 07:38:06;;;;;;;4.90;3.00;;;;;;;7.89;58.87;102600.94;4936363;28;119113;-72
2023/01/27 07:40:34;;;;;;;6.93;3.13;;;;;;;7.88;58.40;102599.16;4944505;28;119622;-71
2023/01/27 07:43:01;;;;;;;5.75;3.40;;;;;;;7.87;58.48;102613.22;4933946;28;123010;-72
2023/01/27 07:45:29;;;;;;;6.43;3.08;;;;;;;7.85;58.41;102609.72;4953151;28;123908;-71
2023/01/27 07:48:07;;;;;;;4.53;2.58;;;;;;;7.86;58.46;102606.22;4937600;28;120182;-71
2023/01/27 07:50:35;;;;;;;6.07;3.10;;;;;;;7.86;58.72;102616.75;4939671;28;119691;-71
2023/01/27 07:53:03;;;;;;;5.78;3.55;;;;;;;7.85;58.61;102604.44;4936260;28;124434;-71
2023/01/27 07:55:31;;;;;;;5.47;3.05;;;;;;;7.87;58.60;102617.63;4953977;28;123103;-71
2023/01/27 07:57:58;;;;;;;5.15;2.70;;;;;;;7.87;58.56;102618.50;4934450;28;118665;-71
2023/01/27 08:00:27;;;;;;;6.13;3.17;;;;;;;7.87;58.58;102613.22;4944335;28;119595;-72
2023/01/27 08:02:55;;;;;;;7.30;3.13;;;;;;;7.86;58.35;102622.03;4943990;28;124254;-71
2023/01/27 08:05:23;;;;;;;4.57;3.00;;;;;;;7.84;58.13;102618.53;4931402;28;123708;-71
2023/01/27 08:07:52;;;;;;;5.93;3.05;;;;;;;7.83;58.57;102616.75;4958962;28;118813;-71
2023/01/27 08:10:19;;;;;;;3.83;2.78;;;;;;;7.83;58.51;102613.25;4938676;28;118993;-71
2023/01/27 08:12:47;;;;;;;4.00;2.63;;;;;;;7.82;58.27;102617.66;4935136;28;124542;-71
2023/01/27 08:15:14;;;;;;;6.30;2.90;;;;;;;7.82;58.17;102615.03;4933310;28;124373;-71
2023/01/27 08:17:54;;;;;;;4.63;2.88;;;;;;;7.82;58.41;102620.31;4933400;28;119317;-72
2023/01/27 08:20:24;;;;;;;4.47;2.50;;;;;;;7.82;58.49;102630.84;4949686;28;118999;-71
2023/01/27 08:22:52;;;;;;;4.60;2.70;;;;;;;7.82;58.40;102625.56;4934517;28;123714;-71
2023/01/27 08:25:19;;;;;;;5.03;2.95;;;;;;;7.82;58.49;102625.56;4933400;28;123997;-71
2023/01/27 08:27:51;;;;;;;5.45;2.90;;;;;;;7.82;58.55;102630.84;4937008;28;119968;-71
2023/01/27 08:30:19;;;;;;;6.25;2.85;;;;;;;7.82;58.16;102625.56;4941512;28;118296;-72
2023/01/27 08:32:46;;;;;;;4.57;2.75;;;;;;;7.81;58.45;102629.09;4943892;28;124709;-71
2023/01/27 08:35:14;;;;;;;5.80;2.60;;;;;;;7.80;58.13;102622.06;4940607;28;124808;-71
2023/01/27 08:37:41;;;;;;;4.57;2.80;;;;;;;7.82;57.89;102625.56;4934882;28;120071;-71
2023/01/27 08:40:09;;;;;;;5.07;2.78;;;;;;;7.81;58.03;102629.09;4957948;28;120312;-71
2023/01/27 08:42:36;;;;;;;4.93;3.10;;;;;;;7.82;58.25;102630.84;4939399;28;123438;-71
2023/01/27 08:45:04;;;;;;;4.82;3.13;;;;;;;7.83;58.23;102632.59;4949541;28;123468;-71
2023/01/27 08:47:31;;;;;;;4.40;3.00;;;;;;;7.82;58.17;102633.50;4946364;28;119317;-71
2023/01/27 08:49:58;;;;;;;4.78;2.47;;;;;;;7.85;58.22;102641.38;4953959;28;119780;-71
2023/01/27 08:52:26;;;;;;;5.18;2.63;;;;;;;7.85;58.14;102646.66;4939208;28;123987;-71
2023/01/27 08:54:53;;;;;;;5.60;2.70;;;;;;;7.85;58.17;102651.91;4938162;28;123906;-71
2023/01/27 08:57:20;;;;;;;4.85;2.92;;;;;;;7.87;58.17;102654.56;4945501;28;118823;-71
2023/01/27 08:59:47;;;;;;;4.53;3.10;;;;;;;7.87;58.56;102660.69;4940435;28;118660;-72
2023/01/27 09:02:14;;;;;;;4.05;2.53;;;;;;;7.86;58.27;102653.69;4942925;28;123965;-72
2023/01/27 09:04:43;;;;;;;4.82;2.80;;;;;;;7.88;58.14;102657.19;4943490;28;123994;-72
2023/01/27 09:07:11;;;;;;;3.78;2.72;;;;;;;7.87;57.84;102650.16;4938966;28;118972;-72
2023/01/27 09:09:38;;;;;;;3.95;2.88;;;;;;;7.87;58.16;102665.97;4944359;28;118488;-72
2023/01/27 09:12:05;;;;;;;5.13;2.83;;;;;;;7.87;58.01;102659.84;4941103;28;123959;-72
2023/01/27 09:14:32;;;;;;;4.25;3.05;;;;;;;7.87;57.88;102660.69;4944034;28;124507;-71
2023/01/27 09:17:00;;;;;;;5.70;3.17;;;;;;;7.85;57.75;102667.75;4936921;28;119464;-72
2023/01/27 09:19:27;;;;;;;5.47;3.10;;;;;;;7.86;57.96;102669.53;4934773;28;119427;-72
2023/01/27 09:21:54;;;;;;;4.72;3.00;;;;;;;7.88;58.19;102672.16;4936087;28;123810;-72
2023/01/27 09:24:21;;;;;;;5.60;2.78;;;;;;;7.88;57.83;102667.75;4935401;28;123326;-72
2023/01/27 09:26:49;;;;;;;4.50;3.05;;;;;;;7.89;57.93;102669.50;4938977;28;120843;-71
2023/01/27 09:29:16;;;;;;;4.88;3.08;;;;;;;7.92;57.70;102674.75;4939683;28;119723;-72
2023/01/27 09:31:43;;;;;;;4.20;2.78;;;;;;;7.93;58.17;102676.53;4939834;28;124601;-72
2023/01/27 09:34:11;;;;;;;5.32;3.20;;;;;;;7.95;57.75;102674.75;4931931;28;123577;-72
2023/01/27 09:36:46;;;;;;;5.38;3.20;;;;;;;7.95;57.82;102674.75;4941561;28;119775;-72
2023/01/27 09:39:16;;;;;;;6.90;2.83;;;;;;;7.97;58.11;102688.81;4936000;28;118672;-73
2023/01/27 09:42:03;;;;;;;4.70;2.83;;;;;;;7.98;57.69;102680.00;4941257;28;124550;-73
2023/01/27 09:44:52;;;;;;;5.78;3.00;;;;;;;7.99;57.61;102676.50;4947572;28;123037;-73
2023/01/27 09:47:35;;;;;;;4.22;2.92;;;;;;;8.01;57.98;102683.53;4945439;28;119888;-73
2023/01/27 09:50:36;;;;;;;4.35;2.63;;;;;;;8.03;57.85;102681.78;4937914;28;119037;-73
2023/01/27 09:53:28;;;;;;;6.00;2.95;;;;;;;8.02;57.70;102680.00;4934567;28;125023;-72
2023/01/27 09:55:58;;;;;;;5.35;2.72;;;;;;;8.02;58.05;102690.56;4952868;28;123417;-72
2023/01/27 09:58:31;;;;;;;4.40;2.53;;;;;;;8.02;57.79;102690.56;4961111;28;119167;-72
2023/01/27 10:01:17;;;;;;;4.13;2.63;;;;;;;8.04;57.67;102694.06;4946282;28;118718;-72
2023/01/27 10:04:13;;;;;;;6.20;2.72;;;;;;;8.04;57.81;102694.06;4943715;28;124723;-72
2023/01/27 10:06:59;;;;;;;5.65;2.97;;;;;;;8.09;57.94;102687.88;4918646;28;123222;-72
2023/01/27 10:09:49;;;;;;;4.90;2.78;;;;;;;8.12;57.80;102687.00;4946880;28;119964;-72
2023/01/27 10:12:33;;;;;;;4.65;3.10;;;;;;;8.15;58.02;102686.97;4946552;28;118920;-72
2023/01/27 10:15:23;;;;;;;4.68;3.20;;;;;;;8.20;58.17;102701.03;4947792;28;124164;-72
2023/01/27 10:18:28;;;;;;;7.03;3.15;;;;;;;8.19;57.84;102697.53;4943935;28;124448;-72
2023/01/27 10:20:59;;;;;;;6.63;3.30;;;;;;;8.20;57.77;102698.38;4946969;28;120828;-73
2023/01/27 10:23:37;;;;;;;5.47;2.90;;;;;;;8.20;57.95;102693.09;4935698;28;119656;-72
2023/01/27 10:26:29;;;;;;;5.88;3.25;;;;;;;8.22;57.88;102698.38;4925906;28;123978;-72
2023/01/27 10:29:07;;;;;;;6.07;3.20;;;;;;;8.21;57.52;102696.63;4950765;28;123976;-72
2023/01/27 10:31:54;;;;;;;5.25;2.92;;;;;;;8.20;57.68;102693.09;4939935;28;119148;-72
2023/01/27 10:34:36;;;;;;;5.38;3.00;;;;;;;8.21;57.84;102692.19;4936515;28;119001;-73
2023/01/27 10:37:29;;;;;;;6.68;3.30;;;;;;;8.20;57.88;102690.47;4950661;28;123216;-72
2023/01/27 10:40:07;;;;;;;6.15;3.08;;;;;;;8.19;57.51;102686.97;4969416;28;123314;-73
2023/01/27 10:43:10;;;;;;;5.20;2.92;;;;;;;8.19;57.68;102678.13;4946413;28;118539;-72
2023/01/27 10:45:46;;;;;;;6.60;2.92;;;;;;;8.19;57.67;102667.59;4934319;28;118938;-72
2023/01/27 10:48:16;;;;;;;5.85;3.30;;;;;;;8.22;57.70;102662.31;4947388;28;123740;-73
2023/01/27 10:50:53;;;;;;;5.20;2.85;;;;;;;8.25;57.80;102667.56;4941294;28;125069;-72
2023/01/27 10:53:48;;;;;;;5.07;3.08;;;;;;;8.29;57.75;102663.16;4938275;28;119602;-73
2023/01/27 10:56:27;;;;;;;5.43;3.10;;;;;;;8.32;57.86;102669.25;4926630;28;118547;-71
2023/01/27 10:59:07;;;;;;;5.07;3.13;;;;;;;8.35;57.92;102674.53;4947068;28;125416;-72
2023/01/27 11:01:45;;;;;;;5.07;3.13;;;;;;;8.40;57.75;102669.25;4945885;28;124338;-72
2023/01/27 11:04:20;;;;;;;5.65;3.20;;;;;;;8.43;57.57;102666.59;4942110;28;119776;-73
2023/01/27 11:06:50;;;;;;;6.78;3.70;;;;;;;8.43;57.49;102671.00;4935013;28;118551;-73
2023/01/27 11:09:42;;;;;;;5.80;3.55;;;;;;;8.46;57.85;102671.00;4948102;28;123626;-72
2023/01/27 11:12:23;;;;;;;5.63;3.30;;;;;;;8.48;57.95;102670.09;5031014;28;96576;-68
2023/01/27 11:14:51;;;;;;;6.17;3.53;;;;;;;8.50;57.41;102667.44;5022308;28;107815;-68
2023/01/27 11:17:23;;;;;;;5.82;3.10;;;;;;;8.52;57.70;102670.94;5018981;28;124739;-68
2023/01/27 11:19:58;;;;;;;6.70;3.58;;;;;;;8.55;57.62;102668.25;5010631;28;123595;-68
2023/01/27 11:22:34;;;;;;;7.30;3.28;;;;;;;8.59;57.48;102672.66;5016657;28;107978;-68
2023/01/27 11:25:04;;;;;;;5.43;3.33;;;;;;;8.58;57.29;102668.25;5019246;28;107826;-68
2023/01/27 11:28:05;;;;;;;5.93;3.30;;;;;;;8.55;57.02;102670.91;5011737;28;124361;-68
2023/01/27 11:30:39;;;;;;;5.90;3.28;;;;;;;8.52;57.18;102663.03;5005018;28;124558;-68
2023/01/27 11:33:27;;;;;;;6.50;3.25;;;;;;;8.52;57.38;102671.81;4998842;28;107868;-68
2023/01/27 11:35:54;;;;;;;6.82;3.28;;;;;;;8.56;57.33;102667.38;5025464;27;107425;-68
2023/01/27 11:38:22;;;;;;;5.22;3.15;;;;;;;8.59;57.41;102662.09;5015315;28;124375;-68
2023/01/27 11:40:51;;;;;;;4.97;3.30;;;;;;;8.62;57.53;102666.47;5008791;28;123341;-68
2023/01/27 11:43:24;;;;;;;6.60;3.03;;;;;;;8.62;57.31;102662.06;5008652;28;107583;-69
2023/01/27 11:46:01;;;;;;;4.68;2.85;;;;;;;8.64;57.38;102662.91;5014775;28;107291;-68
2023/01/27 11:48:54;;;;;;;3.67;2.40;;;;;;;8.65;57.18;102662.03;5017078;28;123859;-69
2023/01/27 11:51:31;;;;;;;4.72;2.42;;;;;;;8.66;57.28;102658.50;5011925;28;124210;-68
2023/01/27 11:54:19;;;;;;;4.63;2.83;;;;;;;8.67;56.93;102656.75;5007203;28;107864;-68
2023/01/27 11:56:48;;;;;;;7.43;3.00;;;;;;;8.67;57.09;102654.97;5021395;28;107800;-68
2023/01/27 11:59:30;;;;;;;6.15;2.97;;;;;;;8.70;57.00;102665.53;5013433;28;123079;-69
2023/01/27 12:02:21;;;;;;;4.78;2.92;;;;;;;8.75;57.45;102655.78;5016401;28;124634;-68
2023/01/27 12:05:06;;;;;;;5.00;2.92;;;;;;;8.75;57.14;102655.78;5014715;28;107315;-68
2023/01/27 12:07:43;;;;;;;6.13;2.78;;;;;;;8.77;57.21;102651.38;5013225;28;108149;-68
2023/01/27 12:10:22;;;;;;;5.72;2.88;;;;;;;8.81;57.03;102651.34;5017059;28;124547;-69
2023/01/27 12:12:50;;;;;;;5.40;2.78;;;;;;;8.84;57.00;102651.34;5010174;28;124533;-68